Pajares, Spain
Current Conditions -  °F | °C
As of 6:30 PM on Wednesday 26 Nov 2014 (Local Time) from LEAS Reporting Station
Broken Clouds Broken Clouds  
Wind Chill: 52°   Ceiling: 7200
Heat Index: 52°   Visibility: 4mi
Dew Point: 48°   Wind: 3mph
Humidity: 88%   Direction: 100°E
Pressure: 29.83"   Gusts: NA
Location:  43.57°N, 5.69°W
Report Text: LEAS 261730Z 10003KT 070V130 7000 FEW020 BKN072 11/09 Q1010 NOSIG
Loading
Personal Weather Stations






























Interactive Weather Map New forecast layout! Learn more

10-Day Weather Forecast

Advertisements
Track Severe Weather on mobile